Shindler, South Dakota
Current Conditions -  °F | °C
As of 7:56 AM on Thursday 30 Oct 2014 (Local Time) from KFSD Reporting Station
Scattered Clouds Scattered Clouds  
Wind Chill: 36°   Ceiling: Unl
Heat Index: 42°   Visibility: 10mi
Dew Point: 34°   Wind: 12mph
Humidity: 73%   Direction: 310°NW
Pressure: 30.01"   Gusts: NA
Location:  43.5199°N, 96.7933°W
Report Text: KFSD 301256Z 31010KT 10SM SCT110 06/01 A3001 RMK AO2 SLP171 T00560011
Loading
Personal Weather Stations






























Interactive Weather Map New forecast layout! Learn more

10-Day Weather Forecast

Advertisements
Track Severe Weather on mobile